sensor_id;sensor_type;location;lat;lon;timestamp;temperature;humidity
1704;DHT22;849;48.780;9.216;2023-08-06T00:00:32;19.80;99.90
1704;DHT22;849;48.780;9.216;2023-08-06T00:03:03;19.80;99.90
1704;DHT22;849;48.780;9.216;2023-08-06T00:05:34;19.80;99.90
1704;DHT22;849;48.780;9.216;2023-08-06T00:08:05;19.80;99.90
1704;DHT22;849;48.780;9.216;2023-08-06T00:10:36;19.80;99.90
1704;DHT22;849;48.780;9.216;2023-08-06T00:13:07;19.70;99.90
1704;DHT22;849;48.780;9.216;2023-08-06T00:15:37;19.80;99.90
1704;DHT22;849;48.780;9.216;2023-08-06T00:18:08;19.80;99.90
1704;DHT22;849;48.780;9.216;2023-08-06T00:20:40;19.70;99.90
1704;DHT22;849;48.780;9.216;2023-08-06T00:23:13;19.70;99.90
1704;DHT22;849;48.780;9.216;2023-08-06T00:25:44;19.60;99.90
1704;DHT22;849;48.780;9.216;2023-08-06T00:28:14;19.60;99.90
1704;DHT22;849;48.780;9.216;2023-08-06T00:30:45;19.60;99.90
1704;DHT22;849;48.780;9.216;2023-08-06T00:33:16;19.50;99.90
1704;DHT22;849;48.780;9.216;2023-08-06T00:35:47;19.50;99.90
1704;DHT22;849;48.780;9.216;2023-08-06T00:38:18;19.40;99.90
1704;DHT22;849;48.780;9.216;2023-08-06T00:40:48;19.30;99.90
1704;DHT22;849;48.780;9.216;2023-08-06T00:43:19;19.20;99.90
1704;DHT22;849;48.780;9.216;2023-08-06T00:45:50;19.10;99.90
1704;DHT22;849;48.780;9.216;2023-08-06T00:48:21;19.10;99.90
1704;DHT22;849;48.780;9.216;2023-08-06T00:50:52;19.10;99.90
1704;DHT22;849;48.780;9.216;2023-08-06T00:53:23;19.00;99.90
1704;DHT22;849;48.780;9.216;2023-08-06T00:55:54;18.90;99.90
1704;DHT22;849;48.780;9.216;2023-08-06T00:58:25;18.80;99.90
1704;DHT22;849;48.780;9.216;2023-08-06T01:00:56;18.80;99.90
1704;DHT22;849;48.780;9.216;2023-08-06T01:03:27;18.70;99.90
1704;DHT22;849;48.780;9.216;2023-08-06T01:05:59;18.60;99.90
1704;DHT22;849;48.780;9.216;2023-08-06T01:11:42;18.60;99.90
1704;DHT22;849;48.780;9.216;2023-08-06T01:14:25;18.60;99.90
1704;DHT22;849;48.780;9.216;2023-08-06T01:16:58;18.60;99.90
1704;DHT22;849;48.780;9.216;2023-08-06T01:19:30;18.40;99.90
1704;DHT22;849;48.780;9.216;2023-08-06T01:22:00;18.30;99.90
1704;DHT22;849;48.780;9.216;2023-08-06T01:24:31;18.30;99.90
1704;DHT22;849;48.780;9.216;2023-08-06T01:27:17;18.20;99.90
1704;DHT22;849;48.780;9.216;2023-08-06T01:30:23;18.30;99.90
1704;DHT22;849;48.780;9.216;2023-08-06T01:33:00;18.30;99.90
1704;DHT22;849;48.780;9.216;2023-08-06T01:35:35;18.30;99.90
1704;DHT22;849;48.780;9.216;2023-08-06T01:38:06;18.40;99.90
1704;DHT22;849;48.780;9.216;2023-08-06T01:40:38;18.40;99.90
1704;DHT22;849;48.780;9.216;2023-08-06T01:43:09;18.40;99.90
1704;DHT22;849;48.780;9.216;2023-08-06T01:45:39;18.40;99.90
1704;DHT22;849;48.780;9.216;2023-08-06T01:48:10;18.50;99.90
1704;DHT22;849;48.780;9.216;2023-08-06T01:50:41;18.60;99.90
1704;DHT22;849;48.780;9.216;2023-08-06T01:53:12;18.60;99.90
1704;DHT22;849;48.780;9.216;2023-08-06T01:55:48;18.60;99.90
1704;DHT22;849;48.780;9.216;2023-08-06T01:58:19;18.60;99.90
1704;DHT22;849;48.780;9.216;2023-08-06T02:00:49;18.70;99.90
1704;DHT22;849;48.780;9.216;2023-08-06T02:03:20;18.60;99.90
1704;DHT22;849;48.780;9.216;2023-08-06T02:05:53;18.60;99.90
1704;DHT22;849;48.780;9.216;2023-08-06T02:08:23;18.60;99.90
1704;DHT22;849;48.780;9.216;2023-08-06T02:10:54;18.60;99.90
1704;DHT22;849;48.780;9.216;2023-08-06T02:13:25;18.60;99.90
1704;DHT22;849;48.780;9.216;2023-08-06T02:15:56;18.60;99.90
1704;DHT22;849;48.780;9.216;2023-08-06T02:18:27;18.50;99.90
1704;DHT22;849;48.780;9.216;2023-08-06T02:20:59;18.50;99.90
1704;DHT22;849;48.780;9.216;2023-08-06T02:23:30;18.50;99.90
1704;DHT22;849;48.780;9.216;2023-08-06T02:26:02;18.40;99.90
1704;DHT22;849;48.780;9.216;2023-08-06T02:28:33;18.40;99.90
1704;DHT22;849;48.780;9.216;2023-08-06T02:31:04;18.40;99.90
1704;DHT22;849;48.780;9.216;2023-08-06T02:33:30;18.40;99.90
1704;DHT22;849;48.780;9.216;2023-08-06T02:36:02;18.40;99.90
1704;DHT22;849;48.780;9.216;2023-08-06T02:38:34;18.40;99.90
1704;DHT22;849;48.780;9.216;2023-08-06T02:41:05;18.40;99.90
1704;DHT22;849;48.780;9.216;2023-08-06T02:43:35;18.30;99.90
1704;DHT22;849;48.780;9.216;2023-08-06T02:46:06;18.40;99.90
1704;DHT22;849;48.780;9.216;2023-08-06T02:48:37;18.30;99.90
1704;DHT22;849;48.780;9.216;2023-08-06T02:51:08;18.30;99.90
1704;DHT22;849;48.780;9.216;2023-08-06T02:53:39;18.20;99.90
1704;DHT22;849;48.780;9.216;2023-08-06T02:56:09;18.00;99.90
1704;DHT22;849;48.780;9.216;2023-08-06T02:58:40;17.90;99.90
1704;DHT22;849;48.780;9.216;2023-08-06T03:01:11;17.90;99.90
1704;DHT22;849;48.780;9.216;2023-08-06T03:03:42;17.90;99.90
1704;DHT22;849;48.780;9.216;2023-08-06T03:06:12;17.90;99.90
1704;DHT22;849;48.780;9.216;2023-08-06T03:08:43;17.90;99.90
1704;DHT22;849;48.780;9.216;2023-08-06T03:11:14;18.00;99.90
1704;DHT22;849;48.780;9.216;2023-08-06T03:13:45;17.90;99.90
1704;DHT22;849;48.780;9.216;2023-08-06T03:16:16;17.90;99.90
1704;DHT22;849;48.780;9.216;2023-08-06T03:18:46;17.90;99.90
1704;DHT22;849;48.780;9.216;2023-08-06T03:21:18;17.90;99.90
1704;DHT22;849;48.780;9.216;2023-08-06T03:23:47;17.90;99.90
1704;DHT22;849;48.780;9.216;2023-08-06T03:26:14;17.80;99.90
1704;DHT22;849;48.780;9.216;2023-08-06T03:28:44;17.80;99.90
1704;DHT22;849;48.780;9.216;2023-08-06T03:31:15;17.90;99.90
1704;DHT22;849;48.780;9.216;2023-08-06T03:33:46;17.90;99.90
1704;DHT22;849;48.780;9.216;2023-08-06T03:36:17;17.90;99.90
1704;DHT22;849;48.780;9.216;2023-08-06T03:38:43;17.90;99.90
1704;DHT22;849;48.780;9.216;2023-08-06T03:41:14;17.90;99.90
1704;DHT22;849;48.780;9.216;2023-08-06T03:43:45;17.80;99.90
1704;DHT22;849;48.780;9.216;2023-08-06T03:46:15;17.90;99.90
1704;DHT22;849;48.780;9.216;2023-08-06T03:48:46;18.00;99.90
1704;DHT22;849;48.780;9.216;2023-08-06T03:51:17;18.10;99.90
1704;DHT22;849;48.780;9.216;2023-08-06T03:53:43;18.10;99.90
1704;DHT22;849;48.780;9.216;2023-08-06T03:56:10;18.10;99.90
1704;DHT22;849;48.780;9.216;2023-08-06T03:58:40;18.10;99.90
1704;DHT22;849;48.780;9.216;2023-08-06T04:01:11;18.10;99.90
1704;DHT22;849;48.780;9.216;2023-08-06T04:03:42;18.20;99.90
1704;DHT22;849;48.780;9.216;2023-08-06T04:06:13;18.10;99.90
1704;DHT22;849;48.780;9.216;2023-08-06T04:08:44;18.10;99.90
1704;DHT22;849;48.780;9.216;2023-08-06T04:11:14;18.00;99.90
1704;DHT22;849;48.780;9.216;2023-08-06T04:13:45;18.10;99.90
1704;DHT22;849;48.780;9.216;2023-08-06T04:16:16;18.10;99.90
1704;DHT22;849;48.780;9.216;2023-08-06T04:18:47;18.20;99.90
1704;DHT22;849;48.780;9.216;2023-08-06T04:21:18;18.20;99.90
1704;DHT22;849;48.780;9.216;2023-08-06T04:23:49;18.20;99.90
1704;DHT22;849;48.780;9.216;2023-08-06T04:26:19;18.30;99.90
1704;DHT22;849;48.780;9.216;2023-08-06T04:28:50;18.30;99.90
1704;DHT22;849;48.780;9.216;2023-08-06T04:31:22;18.30;99.90
1704;DHT22;849;48.780;9.216;2023-08-06T04:33:53;18.30;99.90
1704;DHT22;849;48.780;9.216;2023-08-06T04:36:24;18.30;99.90
1704;DHT22;849;48.780;9.216;2023-08-06T04:38:55;18.30;99.90
1704;DHT22;849;48.780;9.216;2023-08-06T04:41:26;18.30;99.90
1704;DHT22;849;48.780;9.216;2023-08-06T04:43:57;18.20;99.90
1704;DHT22;849;48.780;9.216;2023-08-06T04:46:27;18.20;99.90
1704;DHT22;849;48.780;9.216;2023-08-06T04:48:58;18.20;99.90
1704;DHT22;849;48.780;9.216;2023-08-06T04:51:29;18.20;99.90
1704;DHT22;849;48.780;9.216;2023-08-06T04:54:00;18.30;99.90
1704;DHT22;849;48.780;9.216;2023-08-06T04:56:31;18.30;99.90
1704;DHT22;849;48.780;9.216;2023-08-06T04:59:03;18.20;99.90
1704;DHT22;849;48.780;9.216;2023-08-06T05:01:33;18.10;99.90
1704;DHT22;849;48.780;9.216;2023-08-06T05:04:04;18.00;99.90
1704;DHT22;849;48.780;9.216;2023-08-06T05:06:35;18.00;99.90
1704;DHT22;849;48.780;9.216;2023-08-06T05:09:08;18.00;99.90
1704;DHT22;849;48.780;9.216;2023-08-06T05:11:39;18.00;99.90
1704;DHT22;849;48.780;9.216;2023-08-06T05:14:10;18.00;99.90
1704;DHT22;849;48.780;9.216;2023-08-06T05:16:41;18.10;99.90
1704;DHT22;849;48.780;9.216;2023-08-06T05:19:11;18.10;99.90
1704;DHT22;849;48.780;9.216;2023-08-06T05:21:42;18.20;99.90
1704;DHT22;849;48.780;9.216;2023-08-06T05:24:13;18.20;99.90
1704;DHT22;849;48.780;9.216;2023-08-06T05:26:44;18.20;99.90
1704;DHT22;849;48.780;9.216;2023-08-06T05:29:17;18.20;99.90
1704;DHT22;849;48.780;9.216;2023-08-06T05:31:43;18.20;99.90
1704;DHT22;849;48.780;9.216;2023-08-06T05:34:14;18.20;99.90
1704;DHT22;849;48.780;9.216;2023-08-06T05:36:44;18.30;99.90
1704;DHT22;849;48.780;9.216;2023-08-06T05:39:15;18.40;99.90
1704;DHT22;849;48.780;9.216;2023-08-06T05:41:41;18.50;99.90
1704;DHT22;849;48.780;9.216;2023-08-06T05:44:12;18.60;99.90
1704;DHT22;849;48.780;9.216;2023-08-06T05:46:43;18.60;99.90
1704;DHT22;849;48.780;9.216;2023-08-06T05:49:09;18.70;99.90
1704;DHT22;849;48.780;9.216;2023-08-06T05:51:40;18.80;99.90
1704;DHT22;849;48.780;9.216;2023-08-06T05:54:11;18.80;99.90
1704;DHT22;849;48.780;9.216;2023-08-06T05:56:42;18.80;99.90
1704;DHT22;849;48.780;9.216;2023-08-06T05:59:12;18.80;99.90
1704;DHT22;849;48.780;9.216;2023-08-06T06:01:39;18.70;99.90
1704;DHT22;849;48.780;9.216;2023-08-06T06:04:05;18.70;99.90
1704;DHT22;849;48.780;9.216;2023-08-06T06:06:31;18.70;99.90
1704;DHT22;849;48.780;9.216;2023-08-06T06:09:02;18.80;99.90
1704;DHT22;849;48.780;9.216;2023-08-06T06:11:33;18.70;99.90
1704;DHT22;849;48.780;9.216;2023-08-06T06:14:03;18.50;99.90
1704;DHT22;849;48.780;9.216;2023-08-06T06:16:34;18.40;99.90
1704;DHT22;849;48.780;9.216;2023-08-06T06:19:05;18.30;99.90
1704;DHT22;849;48.780;9.216;2023-08-06T06:21:36;18.30;99.90
1704;DHT22;849;48.780;9.216;2023-08-06T06:24:08;18.10;99.90
1704;DHT22;849;48.780;9.216;2023-08-06T06:26:39;18.10;99.90
1704;DHT22;849;48.780;9.216;2023-08-06T06:29:09;18.00;99.90
1704;DHT22;849;48.780;9.216;2023-08-06T06:31:40;18.00;99.90
1704;DHT22;849;48.780;9.216;2023-08-06T06:34:11;18.10;99.90
1704;DHT22;849;48.780;9.216;2023-08-06T06:36:42;18.10;99.90
1704;DHT22;849;48.780;9.216;2023-08-06T06:39:13;18.00;99.90
1704;DHT22;849;48.780;9.216;2023-08-06T06:41:44;18.10;99.90
1704;DHT22;849;48.780;9.216;2023-08-06T06:44:14;17.90;99.90
1704;DHT22;849;48.780;9.216;2023-08-06T06:46:45;17.90;99.90
1704;DHT22;849;48.780;9.216;2023-08-06T06:49:16;18.00;99.90
1704;DHT22;849;48.780;9.216;2023-08-06T06:51:47;18.10;99.90
1704;DHT22;849;48.780;9.216;2023-08-06T06:54:18;18.30;99.90
1704;DHT22;849;48.780;9.216;2023-08-06T06:56:48;18.30;99.90
1704;DHT22;849;48.780;9.216;2023-08-06T06:59:19;18.30;99.90
1704;DHT22;849;48.780;9.216;2023-08-06T07:01:50;18.30;99.90
1704;DHT22;849;48.780;9.216;2023-08-06T07:04:21;18.40;99.90
1704;DHT22;849;48.780;9.216;2023-08-06T07:06:51;18.40;99.90
1704;DHT22;849;48.780;9.216;2023-08-06T07:09:23;18.30;99.90
1704;DHT22;849;48.780;9.216;2023-08-06T07:11:54;18.40;99.90
1704;DHT22;849;48.780;9.216;2023-08-06T07:14:26;18.40;99.90
1704;DHT22;849;48.780;9.216;2023-08-06T07:16:56;18.30;99.90
1704;DHT22;849;48.780;9.216;2023-08-06T07:19:27;18.10;99.90
1704;DHT22;849;48.780;9.216;2023-08-06T07:21:58;18.20;99.90
1704;DHT22;849;48.780;9.216;2023-08-06T07:24:29;18.30;99.90
1704;DHT22;849;48.780;9.216;2023-08-06T07:27:00;18.40;99.90
1704;DHT22;849;48.780;9.216;2023-08-06T07:29:31;18.40;99.90
1704;DHT22;849;48.780;9.216;2023-08-06T07:32:02;18.40;99.90
1704;DHT22;849;48.780;9.216;2023-08-06T07:34:33;18.30;99.90
1704;DHT22;849;48.780;9.216;2023-08-06T07:37:04;18.20;99.90
1704;DHT22;849;48.780;9.216;2023-08-06T07:39:35;18.30;99.90
1704;DHT22;849;48.780;9.216;2023-08-06T07:42:08;18.20;99.90
1704;DHT22;849;48.780;9.216;2023-08-06T07:44:40;18.10;99.90
1704;DHT22;849;48.780;9.216;2023-08-06T07:47:11;18.00;99.90
1704;DHT22;849;48.780;9.216;2023-08-06T07:49:42;18.00;99.90
1704;DHT22;849;48.780;9.216;2023-08-06T07:52:13;18.10;99.90
1704;DHT22;849;48.780;9.216;2023-08-06T07:54:44;18.20;99.90
1704;DHT22;849;48.780;9.216;2023-08-06T07:57:14;18.20;99.90
1704;DHT22;849;48.780;9.216;2023-08-06T07:59:46;18.10;99.90
1704;DHT22;849;48.780;9.216;2023-08-06T08:02:16;18.20;99.90
1704;DHT22;849;48.780;9.216;2023-08-06T08:04:47;18.10;99.90
1704;DHT22;849;48.780;9.216;2023-08-06T08:07:18;18.10;99.90
1704;DHT22;849;48.780;9.216;2023-08-06T08:09:50;18.20;99.90
1704;DHT22;849;48.780;9.216;2023-08-06T08:12:20;18.30;99.90
1704;DHT22;849;48.780;9.216;2023-08-06T08:14:52;18.30;99.90
1704;DHT22;849;48.780;9.216;2023-08-06T08:17:22;18.20;99.90
1704;DHT22;849;48.780;9.216;2023-08-06T08:19:53;18.10;99.90
1704;DHT22;849;48.780;9.216;2023-08-06T08:22:24;18.10;99.90
1704;DHT22;849;48.780;9.216;2023-08-06T08:24:55;18.30;99.90
1704;DHT22;849;48.780;9.216;2023-08-06T08:27:25;18.50;99.90
1704;DHT22;849;48.780;9.216;2023-08-06T08:29:56;18.20;99.90
1704;DHT22;849;48.780;9.216;2023-08-06T08:32:27;18.30;99.90
1704;DHT22;849;48.780;9.216;2023-08-06T08:34:58;18.30;99.90
1704;DHT22;849;48.780;9.216;2023-08-06T08:37:29;18.40;99.90
1704;DHT22;849;48.780;9.216;2023-08-06T08:39:59;18.50;99.90
1704;DHT22;849;48.780;9.216;2023-08-06T08:42:31;18.40;99.90
1704;DHT22;849;48.780;9.216;2023-08-06T08:45:04;18.60;99.90
1704;DHT22;849;48.780;9.216;2023-08-06T08:47:35;18.90;99.90
1704;DHT22;849;48.780;9.216;2023-08-06T08:50:08;18.90;99.90
1704;DHT22;849;48.780;9.216;2023-08-06T08:52:39;19.00;99.90
1704;DHT22;849;48.780;9.216;2023-08-06T08:55:15;19.00;99.90
1704;DHT22;849;48.780;9.216;2023-08-06T08:57:46;18.90;99.90
1704;DHT22;849;48.780;9.216;2023-08-06T09:00:17;18.70;99.90
1704;DHT22;849;48.780;9.216;2023-08-06T09:02:48;18.70;99.90
1704;DHT22;849;48.780;9.216;2023-08-06T09:05:21;18.80;99.90
1704;DHT22;849;48.780;9.216;2023-08-06T09:07:53;18.80;99.90
1704;DHT22;849;48.780;9.216;2023-08-06T09:10:25;18.90;99.90
1704;DHT22;849;48.780;9.216;2023-08-06T09:12:57;18.90;99.90
1704;DHT22;849;48.780;9.216;2023-08-06T09:15:28;18.50;99.90
1704;DHT22;849;48.780;9.216;2023-08-06T09:18:00;18.40;99.90
1704;DHT22;849;48.780;9.216;2023-08-06T09:20:34;18.40;99.90
1704;DHT22;849;48.780;9.216;2023-08-06T09:23:09;18.60;99.90
1704;DHT22;849;48.780;9.216;2023-08-06T09:25:40;18.50;99.90
1704;DHT22;849;48.780;9.216;2023-08-06T09:28:11;18.60;99.90
1704;DHT22;849;48.780;9.216;2023-08-06T09:30:42;18.70;99.90
1704;DHT22;849;48.780;9.216;2023-08-06T09:33:17;18.60;99.90
1704;DHT22;849;48.780;9.216;2023-08-06T09:35:48;18.70;99.90
1704;DHT22;849;48.780;9.216;2023-08-06T09:38:19;18.90;99.90
1704;DHT22;849;48.780;9.216;2023-08-06T09:40:50;18.90;99.90
1704;DHT22;849;48.780;9.216;2023-08-06T09:43:22;19.00;99.90
1704;DHT22;849;48.780;9.216;2023-08-06T09:45:55;19.10;99.90
1704;DHT22;849;48.780;9.216;2023-08-06T09:48:26;18.90;99.90
1704;DHT22;849;48.780;9.216;2023-08-06T09:50:57;18.80;99.90
1704;DHT22;849;48.780;9.216;2023-08-06T09:53:28;18.60;99.90
1704;DHT22;849;48.780;9.216;2023-08-06T09:55:59;18.60;99.90
1704;DHT22;849;48.780;9.216;2023-08-06T09:58:32;18.50;99.90
1704;DHT22;849;48.780;9.216;2023-08-06T10:01:04;18.40;99.90
1704;DHT22;849;48.780;9.216;2023-08-06T10:03:35;18.40;99.90
1704;DHT22;849;48.780;9.216;2023-08-06T10:06:07;18.70;99.90
1704;DHT22;849;48.780;9.216;2023-08-06T10:08:39;18.90;99.90
1704;DHT22;849;48.780;9.216;2023-08-06T10:11:12;18.80;99.90
1704;DHT22;849;48.780;9.216;2023-08-06T10:13:43;18.60;99.90
1704;DHT22;849;48.780;9.216;2023-08-06T10:16:15;18.70;99.90
1704;DHT22;849;48.780;9.216;2023-08-06T10:18:47;18.70;99.90
1704;DHT22;849;48.780;9.216;2023-08-06T10:21:18;18.70;99.90
1704;DHT22;849;48.780;9.216;2023-08-06T10:23:54;18.70;99.90
1704;DHT22;849;48.780;9.216;2023-08-06T10:26:28;18.50;99.90
1704;DHT22;849;48.780;9.216;2023-08-06T10:28:59;18.30;99.90
1704;DHT22;849;48.780;9.216;2023-08-06T10:31:58;18.20;99.90
1704;DHT22;849;48.780;9.216;2023-08-06T10:34:56;18.20;99.90
1704;DHT22;849;48.780;9.216;2023-08-06T10:37:35;18.30;99.90
1704;DHT22;849;48.780;9.216;2023-08-06T10:40:02;18.20;99.90
1704;DHT22;849;48.780;9.216;2023-08-06T10:42:34;18.30;99.90
1704;DHT22;849;48.780;9.216;2023-08-06T10:45:15;18.40;99.90
1704;DHT22;849;48.780;9.216;2023-08-06T10:47:46;18.50;99.90
1704;DHT22;849;48.780;9.216;2023-08-06T10:50:17;18.50;99.90
1704;DHT22;849;48.780;9.216;2023-08-06T10:52:48;18.60;99.90
1704;DHT22;849;48.780;9.216;2023-08-06T10:55:24;18.80;99.90
1704;DHT22;849;48.780;9.216;2023-08-06T10:57:56;18.60;99.90
1704;DHT22;849;48.780;9.216;2023-08-06T11:00:28;18.40;99.90
1704;DHT22;849;48.780;9.216;2023-08-06T11:02:59;18.40;99.90
1704;DHT22;849;48.780;9.216;2023-08-06T11:05:30;18.50;99.90
1704;DHT22;849;48.780;9.216;2023-08-06T11:08:01;18.50;99.90
1704;DHT22;849;48.780;9.216;2023-08-06T11:10:33;18.60;99.90
1704;DHT22;849;48.780;9.216;2023-08-06T11:13:04;18.60;99.90
1704;DHT22;849;48.780;9.216;2023-08-06T11:15:38;18.50;99.90
1704;DHT22;849;48.780;9.216;2023-08-06T11:18:09;18.30;99.90
1704;DHT22;849;48.780;9.216;2023-08-06T11:20:40;18.20;99.90
1704;DHT22;849;48.780;9.216;2023-08-06T11:23:11;18.10;99.90
1704;DHT22;849;48.780;9.216;2023-08-06T11:25:45;17.90;99.90
1704;DHT22;849;48.780;9.216;2023-08-06T11:28:16;17.80;99.90
1704;DHT22;849;48.780;9.216;2023-08-06T11:30:50;17.80;99.90
1704;DHT22;849;48.780;9.216;2023-08-06T11:33:24;17.90;99.90
1704;DHT22;849;48.780;9.216;2023-08-06T11:35:59;18.10;99.90
1704;DHT22;849;48.780;9.216;2023-08-06T11:38:30;18.20;99.90
1704;DHT22;849;48.780;9.216;2023-08-06T11:41:01;18.30;99.90
1704;DHT22;849;48.780;9.216;2023-08-06T11:43:32;18.30;99.90
1704;DHT22;849;48.780;9.216;2023-08-06T11:46:03;18.40;99.90
1704;DHT22;849;48.780;9.216;2023-08-06T11:48:51;18.60;99.90
1704;DHT22;849;48.780;9.216;2023-08-06T11:51:25;18.50;99.90
1704;DHT22;849;48.780;9.216;2023-08-06T11:53:57;18.20;99.90
1704;DHT22;849;48.780;9.216;2023-08-06T11:56:28;18.00;99.90
1704;DHT22;849;48.780;9.216;2023-08-06T11:58:59;18.10;99.90
1704;DHT22;849;48.780;9.216;2023-08-06T12:01:26;18.00;99.90
1704;DHT22;849;48.780;9.216;2023-08-06T12:04:00;17.90;99.90
1704;DHT22;849;48.780;9.216;2023-08-06T12:06:31;17.80;99.90
1704;DHT22;849;48.780;9.216;2023-08-06T12:09:12;17.50;99.90
1704;DHT22;849;48.780;9.216;2023-08-06T12:11:38;17.40;99.90
1704;DHT22;849;48.780;9.216;2023-08-06T12:14:09;17.50;99.90
1704;DHT22;849;48.780;9.216;2023-08-06T12:16:40;17.50;99.90
1704;DHT22;849;48.780;9.216;2023-08-06T12:19:10;17.60;99.90
1704;DHT22;849;48.780;9.216;2023-08-06T12:21:41;17.70;99.90
1704;DHT22;849;48.780;9.216;2023-08-06T12:24:15;17.70;99.90
1704;DHT22;849;48.780;9.216;2023-08-06T12:26:46;17.80;99.90
1704;DHT22;849;48.780;9.216;2023-08-06T12:29:16;17.80;99.90
1704;DHT22;849;48.780;9.216;2023-08-06T12:31:47;17.70;99.90
1704;DHT22;849;48.780;9.216;2023-08-06T12:34:18;17.80;99.90
1704;DHT22;849;48.780;9.216;2023-08-06T12:36:49;17.80;99.90
1704;DHT22;849;48.780;9.216;2023-08-06T12:39:20;17.90;99.90
1704;DHT22;849;48.780;9.216;2023-08-06T12:41:54;17.80;99.90
1704;DHT22;849;48.780;9.216;2023-08-06T12:44:25;17.60;99.90
1704;DHT22;849;48.780;9.216;2023-08-06T12:46:56;17.60;99.90
1704;DHT22;849;48.780;9.216;2023-08-06T12:49:27;17.60;99.90
1704;DHT22;849;48.780;9.216;2023-08-06T12:51:59;17.70;99.90
1704;DHT22;849;48.780;9.216;2023-08-06T12:54:35;18.00;99.90
1704;DHT22;849;48.780;9.216;2023-08-06T12:57:09;18.00;99.90
1704;DHT22;849;48.780;9.216;2023-08-06T12:59:40;18.10;99.90
1704;DHT22;849;48.780;9.216;2023-08-06T13:02:11;18.30;99.90
1704;DHT22;849;48.780;9.216;2023-08-06T13:04:42;18.30;99.90
1704;DHT22;849;48.780;9.216;2023-08-06T13:07:12;18.30;99.90
1704;DHT22;849;48.780;9.216;2023-08-06T13:09:43;18.10;99.90
1704;DHT22;849;48.780;9.216;2023-08-06T13:12:14;18.10;99.90
1704;DHT22;849;48.780;9.216;2023-08-06T13:14:44;18.20;99.90
1704;DHT22;849;48.780;9.216;2023-08-06T13:17:15;18.40;99.90
1704;DHT22;849;48.780;9.216;2023-08-06T13:19:46;18.40;99.90
1704;DHT22;849;48.780;9.216;2023-08-06T13:22:17;18.40;99.90
1704;DHT22;849;48.780;9.216;2023-08-06T13:24:48;18.40;99.90
1704;DHT22;849;48.780;9.216;2023-08-06T13:27:18;18.50;99.90
1704;DHT22;849;48.780;9.216;2023-08-06T13:29:49;18.50;99.90
1704;DHT22;849;48.780;9.216;2023-08-06T13:32:20;18.70;99.90
1704;DHT22;849;48.780;9.216;2023-08-06T13:34:51;18.70;99.90
1704;DHT22;849;48.780;9.216;2023-08-06T13:37:22;18.70;99.90
1704;DHT22;849;48.780;9.216;2023-08-06T13:39:53;18.90;99.90
1704;DHT22;849;48.780;9.216;2023-08-06T13:42:24;19.10;99.90
1704;DHT22;849;48.780;9.216;2023-08-06T13:44:54;19.00;99.90
1704;DHT22;849;48.780;9.216;2023-08-06T13:47:33;19.00;99.90
1704;DHT22;849;48.780;9.216;2023-08-06T13:50:04;19.00;99.90
1704;DHT22;849;48.780;9.216;2023-08-06T13:52:34;18.80;99.90
1704;DHT22;849;48.780;9.216;2023-08-06T13:55:06;18.40;99.90
1704;DHT22;849;48.780;9.216;2023-08-06T13:57:38;18.10;99.90
1704;DHT22;849;48.780;9.216;2023-08-06T14:00:09;18.10;99.90
1704;DHT22;849;48.780;9.216;2023-08-06T14:02:40;18.20;99.90
1704;DHT22;849;48.780;9.216;2023-08-06T14:05:11;18.40;99.90
1704;DHT22;849;48.780;9.216;2023-08-06T14:07:42;18.20;99.90
1704;DHT22;849;48.780;9.216;2023-08-06T14:10:13;18.30;99.90
1704;DHT22;849;48.780;9.216;2023-08-06T14:12:44;18.40;99.90
1704;DHT22;849;48.780;9.216;2023-08-06T14:15:15;18.20;99.90
1704;DHT22;849;48.780;9.216;2023-08-06T14:17:45;18.10;99.90
1704;DHT22;849;48.780;9.216;2023-08-06T14:20:16;18.10;99.90
1704;DHT22;849;48.780;9.216;2023-08-06T14:22:47;18.40;99.90
1704;DHT22;849;48.780;9.216;2023-08-06T14:25:18;18.50;99.90
1704;DHT22;849;48.780;9.216;2023-08-06T14:27:48;18.40;99.90
1704;DHT22;849;48.780;9.216;2023-08-06T14:30:19;18.50;99.90
1704;DHT22;849;48.780;9.216;2023-08-06T14:32:50;18.70;99.90
1704;DHT22;849;48.780;9.216;2023-08-06T14:35:21;18.80;99.90
1704;DHT22;849;48.780;9.216;2023-08-06T14:37:52;18.60;99.90
1704;DHT22;849;48.780;9.216;2023-08-06T14:40:23;18.80;99.90
1704;DHT22;849;48.780;9.216;2023-08-06T14:42:56;18.60;99.90
1704;DHT22;849;48.780;9.216;2023-08-06T14:45:27;18.70;99.90
1704;DHT22;849;48.780;9.216;2023-08-06T14:47:57;18.60;99.90
1704;DHT22;849;48.780;9.216;2023-08-06T14:50:28;18.50;99.90
1704;DHT22;849;48.780;9.216;2023-08-06T14:52:59;18.30;99.90
1704;DHT22;849;48.780;9.216;2023-08-06T14:55:33;18.20;99.90
1704;DHT22;849;48.780;9.216;2023-08-06T14:58:04;18.20;99.90
1704;DHT22;849;48.780;9.216;2023-08-06T15:00:35;18.40;99.90
1704;DHT22;849;48.780;9.216;2023-08-06T15:03:06;18.10;99.90
1704;DHT22;849;48.780;9.216;2023-08-06T15:05:36;18.00;99.90
1704;DHT22;849;48.780;9.216;2023-08-06T15:08:07;17.90;99.90
1704;DHT22;849;48.780;9.216;2023-08-06T15:10:38;17.70;99.90
1704;DHT22;849;48.780;9.216;2023-08-06T15:13:09;17.80;99.90
1704;DHT22;849;48.780;9.216;2023-08-06T15:15:39;17.90;99.90
1704;DHT22;849;48.780;9.216;2023-08-06T15:18:12;18.00;99.90
1704;DHT22;849;48.780;9.216;2023-08-06T15:20:43;18.10;99.90
1704;DHT22;849;48.780;9.216;2023-08-06T15:23:14;18.40;99.90
1704;DHT22;849;48.780;9.216;2023-08-06T15:25:45;18.40;99.90
1704;DHT22;849;48.780;9.216;2023-08-06T15:28:16;18.20;99.90
1704;DHT22;849;48.780;9.216;2023-08-06T15:30:51;18.30;99.90
1704;DHT22;849;48.780;9.216;2023-08-06T15:33:22;18.40;99.90
1704;DHT22;849;48.780;9.216;2023-08-06T15:35:53;18.50;99.90
1704;DHT22;849;48.780;9.216;2023-08-06T15:38:24;18.60;99.90
1704;DHT22;849;48.780;9.216;2023-08-06T15:40:54;18.80;99.90
1704;DHT22;849;48.780;9.216;2023-08-06T15:43:25;18.90;99.90
1704;DHT22;849;48.780;9.216;2023-08-06T15:45:56;19.10;99.90
1704;DHT22;849;48.780;9.216;2023-08-06T15:48:27;18.90;99.90
1704;DHT22;849;48.780;9.216;2023-08-06T15:50:58;19.00;99.90
1704;DHT22;849;48.780;9.216;2023-08-06T15:53:28;19.30;99.90
1704;DHT22;849;48.780;9.216;2023-08-06T15:55:59;19.50;99.90
1704;DHT22;849;48.780;9.216;2023-08-06T15:58:30;19.50;99.90
1704;DHT22;849;48.780;9.216;2023-08-06T16:01:02;19.90;99.90
1704;DHT22;849;48.780;9.216;2023-08-06T16:03:33;20.10;99.90
1704;DHT22;849;48.780;9.216;2023-08-06T16:06:04;20.70;99.90
1704;DHT22;849;48.780;9.216;2023-08-06T16:08:35;21.30;99.90
1704;DHT22;849;48.780;9.216;2023-08-06T16:11:06;21.30;99.90
1704;DHT22;849;48.780;9.216;2023-08-06T16:13:37;21.00;99.90
1704;DHT22;849;48.780;9.216;2023-08-06T16:16:08;20.70;99.90
1704;DHT22;849;48.780;9.216;2023-08-06T16:18:39;20.30;99.90
1704;DHT22;849;48.780;9.216;2023-08-06T16:21:10;20.20;99.90
1704;DHT22;849;48.780;9.216;2023-08-06T16:23:40;20.20;99.90
1704;DHT22;849;48.780;9.216;2023-08-06T16:26:11;20.20;99.90
1704;DHT22;849;48.780;9.216;2023-08-06T16:28:42;20.60;99.90
1704;DHT22;849;48.780;9.216;2023-08-06T16:31:13;20.80;99.90
1704;DHT22;849;48.780;9.216;2023-08-06T16:33:43;20.50;99.90
1704;DHT22;849;48.780;9.216;2023-08-06T16:36:14;20.20;99.90
1704;DHT22;849;48.780;9.216;2023-08-06T16:38:45;19.80;99.90
1704;DHT22;849;48.780;9.216;2023-08-06T16:41:16;19.70;99.90
1704;DHT22;849;48.780;9.216;2023-08-06T16:43:48;19.60;99.90
1704;DHT22;849;48.780;9.216;2023-08-06T16:46:19;19.20;99.90